Time;durP1;ratioP1;P1;durP2;ratioP2;P2;SDS_P1;SDS_P2;PMS_P1;PMS_P2;Temp;Humidity;BMP_temperature;BMP_pressure;BME280_temperature;BME280_humidity;BME280_pressure;Samples;Min_cycle;Max_cycle;Signal;HPM_P1;HPM_P2
2022/04/30 00:00:46;;;;;;;;;28.67;23.67;;;;;13.42;50.39;101899.91;4893265;29;44737;-83
2022/04/30 00:03:11;;;;;;;;;29.33;27.67;;;;;13.42;50.55;101904.34;4892959;29;45772;-83
2022/04/30 00:05:37;;;;;;;;;30.67;30.00;;;;;13.40;51.08;101906.97;4893007;29;45569;-83
2022/04/30 00:08:04;;;;;;;;;30.33;28.00;;;;;13.44;51.03;101905.28;4874898;29;46040;-83
2022/04/30 00:10:30;;;;;;;;;31.33;28.33;;;;;13.30;50.55;101905.88;4876514;29;44956;-83
2022/04/30 00:12:56;;;;;;;;;27.33;26.33;;;;;13.22;51.16;101902.09;4893473;29;45257;-83
2022/04/30 00:15:22;;;;;;;;;32.00;27.67;;;;;13.10;51.39;101899.16;4876706;29;45498;-83
2022/04/30 00:17:47;;;;;;;;;33.33;28.67;;;;;13.06;51.28;101890.19;4876611;29;45416;-84
2022/04/30 00:20:13;;;;;;;;;25.67;24.33;;;;;13.11;51.45;101903.63;4892857;29;45747;-84
2022/04/30 00:22:38;;;;;;;;;26.00;24.67;;;;;13.00;52.72;101912.28;4893489;29;46459;-83
2022/04/30 00:25:04;;;;;;;;;29.00;27.00;;;;;12.91;52.34;101901.41;4892012;29;45735;-83
2022/04/30 00:27:31;;;;;;;;;33.00;27.67;;;;;12.91;52.93;101912.09;4891892;29;45417;-84
2022/04/30 00:29:58;;;;;;;;;31.67;28.67;;;;;12.80;53.03;101908.25;4875254;29;45698;-84
2022/04/30 00:32:24;;;;;;;;;37.33;33.33;;;;;12.80;53.40;101924.28;4891529;29;45617;-84
2022/04/30 00:34:49;;;;;;;;;31.33;28.00;;;;;12.74;54.08;101913.47;4890394;29;45464;-83
2022/04/30 00:37:14;;;;;;;;;37.00;34.67;;;;;12.74;53.92;101921.47;4873657;29;45583;-83
2022/04/30 00:39:40;;;;;;;;;41.00;32.33;;;;;12.71;53.67;101921.41;4874495;29;45521;-84
2022/04/30 00:42:11;;;;;;;;;35.67;31.00;;;;;12.75;54.10;101915.28;4874974;29;47834;-84
2022/04/30 00:44:36;;;;;;;;;28.33;25.33;;;;;12.65;54.67;101918.59;4890082;29;45417;-83
2022/04/30 00:47:33;;;;;;;;;36.67;30.67;;;;;12.70;54.42;101922.25;4874494;29;45703;-82
2022/04/30 00:49:58;;;;;;;;;39.33;33.33;;;;;12.51;55.09;101919.16;4891192;29;45550;-83
2022/04/30 00:52:25;;;;;;;;;30.33;29.33;;;;;12.48;55.44;101921.75;4890572;29;45458;-83
2022/04/30 00:54:56;;;;;;;;;40.00;36.00;;;;;12.41;55.31;101915.34;4889571;29;45525;-83
2022/04/30 00:57:25;;;;;;;;;32.00;30.33;;;;;12.40;56.28;101921.56;4873338;29;45599;-83
2022/04/30 01:03:13;;;;;;;;;33.67;30.00;;;;;12.28;57.24;101912.31;4891459;29;44898;-84
2022/04/30 01:05:39;;;;;;;;;35.00;30.33;;;;;12.32;56.96;101909.78;4873656;29;45455;-83
2022/04/30 01:08:05;;;;;;;;;39.00;34.00;;;;;12.36;55.99;101911.66;4891844;29;45414;-83
2022/04/30 01:10:32;;;;;;;;;36.33;33.00;;;;;12.46;56.99;101914.56;4874196;29;45418;-82
2022/04/30 01:12:58;;;;;;;;;35.67;33.00;;;;;12.28;57.87;101898.97;4889984;29;45605;-83
2022/04/30 01:16:02;;;;;;;;;33.33;32.67;;;;;12.45;56.62;101915.44;4873758;29;45562;-82
2022/04/30 01:18:28;;;;;;;;;40.67;34.33;;;;;12.31;57.45;101904.41;4873357;29;45825;-84
2022/04/30 01:20:58;;;;;;;;;29.67;29.00;;;;;12.37;57.07;101905.44;4873742;29;45416;-83
2022/04/30 01:23:26;;;;;;;;;33.33;31.67;;;;;12.23;57.41;101892.63;4891529;29;45503;-83
2022/04/30 01:25:53;;;;;;;;;36.00;32.67;;;;;12.20;57.89;101894.38;4889400;29;45445;-84
2022/04/30 01:28:20;;;;;;;;;42.67;36.00;;;;;12.16;58.14;101903.16;4869922;29;44949;-83
2022/04/30 01:30:46;;;;;;;;;32.00;31.00;;;;;12.14;58.25;101899.53;4870604;29;45449;-83
2022/04/30 01:38:41;;;;;;;;;37.00;33.00;;;;;12.10;58.26;101895.00;4887350;29;44772;-83
2022/04/30 01:41:06;;;;;;;;;42.00;35.67;;;;;12.07;59.65;101896.66;4873639;29;45849;-83
2022/04/30 01:43:33;;;;;;;;;40.33;34.00;;;;;11.96;59.48;101886.63;4889676;29;45399;-84
2022/04/30 01:46:01;;;;;;;;;40.67;33.00;;;;;11.86;60.01;101892.53;4872769;29;45825;-83
2022/04/30 01:48:27;;;;;;;;;35.00;33.33;;;;;11.74;61.32;101893.09;4891851;29;45287;-82
2022/04/30 01:50:56;;;;;;;;;35.67;33.00;;;;;11.72;60.15;101894.81;4889399;29;45755;-83
2022/04/30 01:53:21;;;;;;;;;35.67;31.67;;;;;11.66;60.53;101881.31;4889608;29;45421;-83
2022/04/30 01:55:47;;;;;;;;;34.00;30.00;;;;;11.65;62.02;101882.16;4872938;29;45905;-84
2022/04/30 01:58:13;;;;;;;;;42.67;36.00;;;;;11.65;61.57;101882.16;4872826;29;45869;-83
2022/04/30 02:00:39;;;;;;;;;36.67;33.67;;;;;11.63;62.54;101886.53;4871860;29;45543;-83
2022/04/30 02:03:09;;;;;;;;;31.00;28.00;;;;;11.62;62.36;101879.44;4872111;29;47285;-83
2022/04/30 02:05:37;;;;;;;;;33.33;29.67;;;;;11.55;63.02;101869.44;4890252;29;45447;-82
2022/04/30 02:08:07;;;;;;;;;38.67;34.00;;;;;11.61;62.20;101882.94;4890269;29;45358;-82
2022/04/30 02:10:38;;;;;;;;;34.00;32.00;;;;;11.59;62.99;101877.59;4872657;29;45704;-83
2022/04/30 02:13:06;;;;;;;;;38.33;33.00;;;;;11.54;62.47;101867.66;4888991;29;45635;-83
2022/04/30 02:15:33;;;;;;;;;36.67;32.67;;;;;11.53;62.30;101868.50;4889737;29;44845;-84
2022/04/30 02:18:00;;;;;;;;;42.33;35.67;;;;;11.51;61.98;101851.56;4872812;29;45442;-83
2022/04/30 02:20:29;;;;;;;;;26.00;22.33;;;;;11.59;61.43;101855.34;4872828;29;45400;-84
2022/04/30 02:22:57;;;;;;;;;36.67;32.33;;;;;11.65;62.27;101863.50;4871943;29;47233;-84
2022/04/30 02:25:24;;;;;;;;;29.67;27.00;;;;;11.77;62.53;101882.50;4874239;29;45418;-84
2022/04/30 02:27:52;;;;;;;;;32.00;30.00;;;;;11.82;62.12;101864.00;4891022;29;45391;-83
2022/04/30 02:30:19;;;;;;;;;38.00;34.00;;;;;11.90;62.95;101865.13;4873817;29;45686;-83
2022/04/30 02:32:48;;;;;;;;;30.67;26.00;;;;;11.92;61.66;101865.19;4890806;29;45544;-83
2022/04/30 02:35:22;;;;;;;;;33.00;28.67;;;;;11.95;61.72;101851.91;4872404;29;45518;-82
2022/04/30 02:37:52;;;;;;;;;31.33;26.67;;;;;11.96;60.98;101862.63;4868596;29;45511;-83
2022/04/30 02:40:20;;;;;;;;;38.00;32.00;;;;;11.98;61.48;101852.91;4868746;29;45572;-82
2022/04/30 02:42:47;;;;;;;;;38.00;33.67;;;;;11.85;61.09;101863.16;4872188;29;47517;-82
2022/04/30 02:45:14;;;;;;;;;37.00;35.00;;;;;11.87;62.17;101867.66;4873782;29;45513;-83
2022/04/30 02:47:42;;;;;;;;;38.00;35.00;;;;;11.86;62.72;101872.97;4875081;29;44734;-82
2022/04/30 02:50:10;;;;;;;;;33.33;31.67;;;;;11.74;66.48;101866.44;4875161;29;45485;-82
2022/04/30 02:52:37;;;;;;;;;38.67;33.00;;;;;11.67;66.65;101869.78;4873321;29;47147;-82
2022/04/30 02:55:10;;;;;;;;;30.67;28.00;;;;;11.64;63.64;101859.06;4874838;29;45064;-82
2022/04/30 03:00:34;;;;;;;;;31.33;31.00;;;;;11.63;62.91;101856.34;4875308;29;45438;-82
2022/04/30 03:03:01;;;;;;;;;40.00;33.00;;;;;11.59;63.41;101866.00;4875160;29;46425;-81
2022/04/30 03:05:26;;;;;;;;;35.67;31.00;;;;;11.53;64.08;101868.50;4876956;29;45674;-83
2022/04/30 03:07:53;;;;;;;;;34.67;30.33;;;;;11.47;64.63;101865.66;4877320;29;45165;-83
2022/04/30 03:10:19;;;;;;;;;32.33;30.67;;;;;11.36;65.63;101855.59;4894465;29;44834;-83
2022/04/30 03:12:44;;;;;;;;;35.67;31.33;;;;;11.37;63.94;101848.50;4892609;29;45524;-83
2022/04/30 03:15:11;;;;;;;;;32.33;28.67;;;;;11.37;63.79;101849.44;4891611;29;45434;-84
2022/04/30 03:23:06;;;;;;;;;45.67;35.00;;;;;11.23;64.60;101850.81;4892475;29;45754;-82
2022/04/30 03:25:32;;;;;;;;;33.67;29.33;;;;;11.26;65.61;101850.88;4892101;29;45470;-83
2022/04/30 03:27:57;;;;;;;;;34.67;31.00;;;;;11.17;67.06;101859.50;4876151;29;44835;-83
2022/04/30 03:30:23;;;;;;;;;33.67;31.00;;;;;11.13;65.37;101859.34;4893076;29;45870;-83
2022/04/30 03:32:50;;;;;;;;;41.00;33.67;;;;;11.17;64.87;101848.84;4856981;29;47225;-83
2022/04/30 03:35:15;;;;;;;;;36.33;33.00;;;;;11.12;64.94;101860.22;4873109;29;45400;-83
2022/04/30 03:37:41;;;;;;;;;37.33;30.67;;;;;11.01;66.30;101843.94;4873205;29;45369;-83
2022/04/30 03:40:07;;;;;;;;;36.67;28.67;;;;;11.04;69.89;101859.09;4873681;29;45705;-83
2022/04/30 03:42:33;;;;;;;;;30.67;29.00;;;;;10.91;68.61;101849.84;4856869;29;47472;-84
2022/04/30 03:45:02;;;;;;;;;34.67;30.67;;;;;10.84;68.72;101846.06;4861889;29;45473;-84
2022/04/30 03:47:27;;;;;;;;;30.33;28.67;;;;;10.84;67.86;101851.38;4880038;29;45394;-82
2022/04/30 03:49:59;;;;;;;;;31.33;29.00;;;;;10.85;67.05;101853.22;4862399;29;45485;-83
2022/04/30 03:52:25;;;;;;;;;32.00;28.67;;;;;10.86;67.47;101848.78;4877867;29;46566;-83
2022/04/30 03:54:52;;;;;;;;;31.00;30.00;;;;;10.79;71.05;101855.69;4860439;29;45453;-84
2022/04/30 03:57:17;;;;;;;;;30.67;27.00;;;;;10.71;68.18;101842.13;4877543;29;45304;-82
2022/04/30 03:59:43;;;;;;;;;40.67;31.33;;;;;10.75;68.01;101852.03;4856816;29;45878;-82
2022/04/30 04:02:08;;;;;;;;;33.67;31.00;;;;;10.79;68.45;101845.03;4856963;29;47901;-82
2022/04/30 04:04:34;;;;;;;;;35.00;34.33;;;;;10.78;67.77;101851.19;4855984;29;45525;-83
2022/04/30 04:06:59;;;;;;;;;45.00;31.67;;;;;10.75;68.63;101841.38;4873758;29;45503;-83
2022/04/30 04:09:25;;;;;;;;;32.67;32.33;;;;;10.75;68.29;101844.03;4857003;29;45413;-84
2022/04/30 04:11:50;;;;;;;;;35.33;30.67;;;;;10.66;70.41;101845.50;4857372;29;47215;-83
2022/04/30 04:19:44;;;;;;;;;31.00;31.00;;;;;10.73;68.83;101834.22;4874095;29;45394;-83
2022/04/30 04:22:09;;;;;;;;;36.33;33.00;;;;;10.76;67.42;101842.28;4873766;29;45715;-82
2022/04/30 04:27:20;;;;;;;;;37.67;30.33;;;;;10.81;69.35;101851.31;4876817;29;45384;-82
2022/04/30 04:29:46;;;;;;;;;38.00;31.00;;;;;10.80;67.46;101849.50;4875018;29;45482;-83
2022/04/30 04:32:12;;;;;;;;;40.00;32.33;;;;;10.69;69.52;101841.19;4856755;29;46825;-82
2022/04/30 04:34:37;;;;;;;;;39.00;32.67;;;;;10.71;68.96;101859.88;4857331;29;45445;-82
2022/04/30 04:37:03;;;;;;;;;39.33;34.33;;;;;10.73;69.65;101853.72;4874398;29;45572;-82
2022/04/30 04:39:28;;;;;;;;;35.33;29.33;;;;;10.76;68.44;101852.91;4874663;29;45794;-82
2022/04/30 04:41:54;;;;;;;;;42.33;35.00;;;;;10.77;68.46;101855.63;4875759;29;45158;-83
2022/04/30 04:44:21;;;;;;;;;44.00;34.00;;;;;10.76;68.92;101852.91;4874413;29;44825;-83
2022/04/30 04:46:47;;;;;;;;;29.33;27.67;;;;;10.75;68.62;101852.03;4857084;29;44877;-83
2022/04/30 04:49:13;;;;;;;;;37.00;32.00;;;;;10.89;68.35;101864.84;4856277;29;45386;-83
2022/04/30 04:51:38;;;;;;;;;34.67;34.67;;;;;10.92;68.30;101865.84;4856143;29;47696;-83
2022/04/30 04:54:04;;;;;;;;;32.33;28.67;;;;;10.97;68.17;101872.22;4872088;29;45394;-83
2022/04/30 04:57:04;;;;;;;;;39.67;35.67;;;;;11.12;67.64;101874.44;4854212;29;45449;-82
2022/04/30 04:59:29;;;;;;;;;30.00;27.00;;;;;11.02;68.36;101877.66;4855005;29;45459;-83
2022/04/30 05:01:55;;;;;;;;;36.33;32.33;;;;;10.97;68.76;101874.88;4869117;29;47562;-83
2022/04/30 05:04:20;;;;;;;;;32.00;31.33;;;;;10.92;67.95;101872.94;4871440;29;44787;-83
2022/04/30 05:06:48;;;;;;;;;32.33;28.00;;;;;10.91;68.78;101877.34;4853989;29;45474;-83
2022/04/30 05:09:13;;;;;;;;;34.33;28.00;;;;;10.90;67.97;101872.88;4870072;29;45666;-84
2022/04/30 05:11:40;;;;;;;;;42.67;33.33;;;;;10.97;68.38;101871.31;4873182;29;45700;-83
2022/04/30 05:14:06;;;;;;;;;34.67;31.67;;;;;11.00;68.18;101888.25;4889996;29;45540;-83
2022/04/30 05:16:32;;;;;;;;;37.00;31.67;;;;;10.98;69.99;101882.00;4872504;29;45456;-82
2022/04/30 05:18:57;;;;;;;;;37.00;35.00;;;;;10.97;68.62;101873.97;4889915;29;45657;-83
2022/04/30 05:21:23;;;;;;;;;39.67;33.67;;;;;11.09;68.97;101873.44;4888645;29;47111;-83
2022/04/30 05:23:49;;;;;;;;;38.00;29.67;;;;;11.17;67.98;101894.13;4889837;29;45482;-83
2022/04/30 05:26:14;;;;;;;;;36.67;34.33;;;;;11.15;67.71;101884.25;4872839;29;45495;-83
2022/04/30 05:28:40;;;;;;;;;34.67;31.67;;;;;11.27;68.03;101895.31;4890083;29;45381;-84
2022/04/30 05:31:06;;;;;;;;;35.00;31.67;;;;;11.32;67.49;101884.78;4889670;29;46128;-84
2022/04/30 05:33:34;;;;;;;;;36.67;31.00;;;;;11.39;68.14;101892.06;4872819;29;45509;-83
2022/04/30 05:36:01;;;;;;;;;42.67;31.33;;;;;11.33;67.33;101906.13;4872526;29;45222;-83
2022/04/30 05:38:26;;;;;;;;;34.67;32.67;;;;;11.18;70.81;101903.91;4890536;29;45317;-83
2022/04/30 05:40:51;;;;;;;;;46.67;34.00;;;;;11.14;69.25;101909.09;4888781;29;45478;-83
2022/04/30 05:43:17;;;;;;;;;34.33;30.33;;;;;11.10;68.72;101892.13;4872691;29;45725;-83
2022/04/30 05:45:42;;;;;;;;;36.00;28.33;;;;;11.21;68.33;101901.34;4890706;29;45667;-82
2022/04/30 05:48:08;;;;;;;;;31.33;28.33;;;;;11.34;68.38;101891.06;4874037;29;45945;-83
2022/04/30 05:50:34;;;;;;;;;37.33;35.00;;;;;11.57;68.03;101900.63;4874219;29;46705;-82
2022/04/30 05:52:59;;;;;;;;;42.33;32.33;;;;;11.78;67.16;101907.41;4891896;29;44904;-83
2022/04/30 05:55:24;;;;;;;;;40.00;35.00;;;;;11.98;66.42;101902.66;4875078;29;45347;-83
2022/04/30 05:57:50;;;;;;;;;41.00;34.00;;;;;12.16;65.82;101904.91;4874767;29;45812;-82
2022/04/30 06:00:16;;;;;;;;;40.67;35.00;;;;;12.38;65.26;101909.94;4890711;29;47038;-83
2022/04/30 06:02:42;;;;;;;;;40.00;35.67;;;;;12.45;64.22;101904.75;4894007;29;45536;-83
2022/04/30 06:05:08;;;;;;;;;36.33;32.33;;;;;12.56;63.82;101908.56;4893243;29;45425;-83
2022/04/30 06:07:34;;;;;;;;;39.00;34.67;;;;;12.67;63.90;101915.09;4875625;29;45462;-83
2022/04/30 06:09:59;;;;;;;;;41.33;36.00;;;;;12.70;63.07;101907.13;4874369;29;46948;-83
2022/04/30 06:12:25;;;;;;;;;35.33;31.33;;;;;12.79;62.72;101903.81;4876349;29;45529;-82
2022/04/30 06:14:50;;;;;;;;;41.33;35.33;;;;;12.84;62.95;101915.47;4895516;29;45423;-82
2022/04/30 06:17:15;;;;;;;;;41.33;34.33;;;;;12.88;62.17;101917.34;4876723;29;45411;-83
2022/04/30 06:19:41;;;;;;;;;48.33;39.00;;;;;12.91;62.05;101916.56;4892576;29;45426;-83
2022/04/30 06:22:07;;;;;;;;;42.67;37.00;;;;;12.97;61.94;101920.25;4894372;29;45327;-84
2022/04/30 06:24:33;;;;;;;;;42.00;37.67;;;;;13.06;61.49;101934.69;4893759;29;45447;-84
2022/04/30 06:26:59;;;;;;;;;44.33;34.00;;;;;13.10;61.46;101929.44;4891382;29;45858;-82
2022/04/30 06:29:24;;;;;;;;;40.33;34.00;;;;;13.06;60.88;101924.91;4890090;29;46494;-82
2022/04/30 06:31:52;;;;;;;;;43.33;36.00;;;;;13.04;60.33;101912.38;4873449;29;45003;-83
2022/04/30 06:34:18;;;;;;;;;33.67;33.00;;;;;13.01;60.36;101930.13;4874075;29;45331;-83
2022/04/30 06:36:44;;;;;;;;;47.67;35.67;;;;;12.94;60.63;101929.94;4872761;29;45500;-84
2022/04/30 06:39:09;;;;;;;;;39.33;34.67;;;;;12.85;60.14;101935.09;4871954;29;47964;-83
2022/04/30 06:41:35;;;;;;;;;39.33;34.33;;;;;12.77;60.62;101926.91;4872365;29;45414;-82
2022/04/30 06:44:00;;;;;;;;;43.33;37.00;;;;;12.76;61.58;101944.66;4873943;29;45220;-83
2022/04/30 06:46:25;;;;;;;;;37.67;31.00;;;;;12.64;60.96;101924.78;4875420;29;44988;-83
2022/04/30 06:48:51;;;;;;;;;33.67;28.00;;;;;12.69;60.81;101937.38;4872860;29;45404;-84
2022/04/30 06:51:16;;;;;;;;;37.00;29.67;;;;;12.73;61.00;101936.59;4872412;29;45401;-84
2022/04/30 06:59:11;;;;;;;;;36.33;31.33;;;;;12.91;59.83;101946.81;4890822;29;45567;-83
2022/04/30 07:01:42;;;;;;;;;45.33;35.00;;;;;12.93;60.22;101938.84;4872994;29;45281;-84
2022/04/30 07:04:09;;;;;;;;;41.00;36.33;;;;;13.07;59.29;101956.09;4890611;29;45416;-84
2022/04/30 07:06:35;;;;;;;;;33.00;28.33;;;;;13.02;59.49;101942.59;4889008;29;45407;-84
2022/04/30 07:09:03;;;;;;;;;31.67;30.00;;;;;12.98;59.71;101946.06;4872722;29;45356;-83
2022/04/30 07:11:28;;;;;;;;;40.00;32.00;;;;;13.08;58.98;101956.97;4890648;29;44978;-84
2022/04/30 07:13:54;;;;;;;;;36.00;32.00;;;;;13.17;58.98;101959.88;4877080;29;45459;-82
2022/04/30 07:16:20;;;;;;;;;39.67;29.00;;;;;13.20;59.05;101949.25;4894108;29;45537;-84
2022/04/30 07:18:45;;;;;;;;;34.67;32.67;;;;;13.36;57.91;101961.22;4877434;29;45487;-84
2022/04/30 07:21:11;;;;;;;;;36.67;30.33;;;;;13.42;57.65;101964.03;4881131;29;45585;-84
2022/04/30 07:23:36;;;;;;;;;43.00;29.33;;;;;13.56;57.80;101957.22;4896385;29;45502;-84
2022/04/30 07:29:24;;;;;;;;;36.33;33.67;;;;;13.93;55.46;101957.94;4893156;29;45514;-83
2022/04/30 07:31:49;;;;;;;;;36.00;32.00;;;;;13.94;55.57;101950.84;4892569;29;45400;-83
2022/04/30 07:34:15;;;;;;;;;33.33;30.67;;;;;14.05;55.45;101957.28;4894165;29;45393;-83
2022/04/30 07:36:41;;;;;;;;;24.00;24.00;;;;;14.15;54.61;101961.94;4892887;29;45916;-83
2022/04/30 07:39:07;;;;;;;;;33.00;29.33;;;;;14.21;54.95;101956.72;4892557;29;45406;-83
2022/04/30 07:41:33;;;;;;;;;34.00;29.00;;;;;14.22;54.02;101952.28;4893680;29;45506;-82
2022/04/30 07:43:59;;;;;;;;;28.33;25.00;;;;;14.29;54.03;101974.69;4876471;29;45769;-83
2022/04/30 07:46:25;;;;;;;;;29.33;28.67;;;;;14.34;53.55;101954.25;4891508;29;45454;-82
2022/04/30 07:48:51;;;;;;;;;30.67;27.67;;;;;14.51;53.80;101968.84;4891777;29;46203;-83
2022/04/30 07:51:23;;;;;;;;;40.00;31.67;;;;;14.58;52.97;101965.44;4892246;29;45398;-83
2022/04/30 07:53:50;;;;;;;;;34.00;29.00;;;;;14.72;52.40;101959.41;4876028;29;44875;-83
2022/04/30 07:56:15;;;;;;;;;38.00;30.33;;;;;14.64;52.03;101961.94;4892292;29;45496;-83
2022/04/30 07:58:41;;;;;;;;;34.00;28.33;;;;;14.65;52.59;101960.19;4873585;29;46896;-83
2022/04/30 08:01:07;;;;;;;;;25.67;24.67;;;;;14.60;52.85;101947.63;4874446;29;45330;-82
2022/04/30 08:03:33;;;;;;;;;21.00;19.33;;;;;14.62;52.71;101960.13;4891232;29;45422;-83
2022/04/30 08:05:59;;;;;;;;;34.33;29.33;;;;;14.46;52.75;101949.16;4891836;29;45621;-83
2022/04/30 08:08:24;;;;;;;;;34.00;29.00;;;;;14.54;53.48;101957.28;4874092;29;46903;-83
2022/04/30 08:10:50;;;;;;;;;36.33;31.67;;;;;14.74;53.50;101944.28;4892715;29;45510;-82
2022/04/30 08:13:15;;;;;;;;;31.33;28.67;;;;;14.95;52.51;101944.63;4892978;29;45163;-83
2022/04/30 08:15:43;;;;;;;;;33.67;32.67;;;;;15.15;51.55;101957.44;4876344;29;45403;-83
2022/04/30 08:18:12;;;;;;;;;30.00;28.67;;;;;15.33;51.46;101941.59;4873926;29;45237;-82
2022/04/30 08:20:38;;;;;;;;;35.33;28.67;;;;;15.37;51.87;101947.88;4874931;29;45845;-84
2022/04/30 08:23:06;;;;;;;;;28.00;27.00;;;;;15.61;51.29;101947.31;4891408;29;45518;-83
2022/04/30 08:25:32;;;;;;;;;36.67;30.00;;;;;15.83;49.94;101952.97;4874810;29;45729;-83
2022/04/30 08:27:57;;;;;;;;;29.33;28.33;;;;;15.89;50.38;101942.31;4874506;29;47256;-83
2022/04/30 08:30:23;;;;;;;;;27.67;27.00;;;;;15.94;50.27;101929.88;4892050;29;45463;-83
2022/04/30 08:32:48;;;;;;;;;33.33;28.67;;;;;15.97;50.10;101940.63;4875613;29;45504;-82
2022/04/30 08:35:14;;;;;;;;;31.67;31.67;;;;;15.92;49.78;101943.25;4874561;29;45660;-82
2022/04/30 08:37:39;;;;;;;;;37.00;32.00;;;;;15.80;49.20;101941.31;4891288;29;45791;-83
2022/04/30 08:40:06;;;;;;;;;34.33;29.00;;;;;15.76;49.37;101952.91;4890670;29;45480;-83
2022/04/30 08:42:32;;;;;;;;;28.33;27.33;;;;;15.62;48.77;101942.88;4876184;29;45428;-83
2022/04/30 08:44:58;;;;;;;;;36.67;29.33;;;;;15.64;49.54;101936.63;4892858;29;44794;-83
2022/04/30 08:47:24;;;;;;;;;25.67;23.00;;;;;15.73;49.05;101952.84;4892119;29;45465;-83
2022/04/30 08:49:52;;;;;;;;;30.33;29.33;;;;;15.73;48.51;101939.44;4875072;29;45440;-83
2022/04/30 08:52:17;;;;;;;;;24.33;23.00;;;;;15.67;48.16;101947.38;4892600;29;44751;-83
2022/04/30 08:54:43;;;;;;;;;27.67;25.33;;;;;15.59;48.95;101931.22;4876383;29;45157;-83
2022/04/30 08:57:15;;;;;;;;;27.00;25.00;;;;;15.79;48.10;101941.28;4876549;29;47143;-83
2022/04/30 08:59:42;;;;;;;;;30.67;26.67;;;;;15.64;47.81;101938.41;4894191;29;45452;-83
2022/04/30 09:02:10;;;;;;;;;30.33;25.00;;;;;15.50;47.79;101924.84;4874915;29;45465;-82
2022/04/30 09:04:48;;;;;;;;;24.67;21.33;;;;;15.55;47.26;101931.13;4891825;29;44701;-83
2022/04/30 09:07:19;;;;;;;;;27.67;24.33;;;;;15.56;48.01;101927.59;4874557;29;47848;-84
2022/04/30 09:09:58;;;;;;;;;28.00;24.33;;;;;15.72;47.34;101934.97;4891356;29;45470;-84
2022/04/30 09:12:25;;;;;;;;;23.67;22.67;;;;;15.69;47.13;101942.94;4875064;29;45394;-83
2022/04/30 09:14:52;;;;;;;;;20.67;20.67;;;;;15.73;46.21;101942.13;4873999;29;45791;-85
2022/04/30 09:17:18;;;;;;;;;21.67;20.33;;;;;15.75;46.24;101934.09;4874460;29;47049;-83
2022/04/30 09:20:00;;;;;;;;;22.33;20.67;;;;;15.87;46.01;101928.88;4891655;29;45223;-83
2022/04/30 09:22:33;;;;;;;;;16.67;14.00;;;;;15.83;45.80;101931.50;4886539;29;45479;-82
2022/04/30 09:25:00;;;;;;;;;21.00;21.00;;;;;15.66;44.19;101925.94;4911584;29;45376;-83
2022/04/30 09:27:27;;;;;;;;;19.67;18.00;;;;;15.65;43.88;101932.16;4909891;29;46901;-83
2022/04/30 09:29:53;;;;;;;;;13.67;13.67;;;;;15.51;44.24;101946.31;4895465;29;45787;-83
2022/04/30 09:32:21;;;;;;;;;14.00;14.00;;;;;15.53;44.57;101922.16;4894748;29;45441;-83
2022/04/30 09:37:41;;;;;;;;;18.33;14.00;;;;;15.79;43.55;101931.50;4912280;29;45408;-82
2022/04/30 09:40:13;;;;;;;;;16.00;13.67;;;;;15.87;43.79;101933.34;4875145;29;45276;-83
2022/04/30 09:42:39;;;;;;;;;18.00;16.33;;;;;15.82;43.06;101921.69;4895049;29;45362;-83
2022/04/30 09:45:09;;;;;;;;;17.00;17.00;;;;;15.86;42.37;101926.19;4878328;29;44774;-83
2022/04/30 09:47:35;;;;;;;;;15.67;15.67;;;;;15.89;42.91;101931.59;4877083;29;47376;-82
2022/04/30 09:56:08;;;;;;;;;14.67;14.33;;;;;15.97;43.36;101911.09;4872099;29;45022;-82
2022/04/30 09:58:39;;;;;;;;;17.67;16.00;;;;;16.03;42.43;101916.53;4857684;29;47036;-82
2022/04/30 10:01:06;;;;;;;;;13.00;13.00;;;;;16.05;42.84;101916.56;4871475;29;45621;-82
2022/04/30 10:03:33;;;;;;;;;17.67;15.67;;;;;16.11;41.63;101906.78;4872985;29;45823;-83
2022/04/30 10:06:03;;;;;;;;;14.67;13.33;;;;;16.12;42.53;101911.28;4873374;29;45484;-83
2022/04/30 10:08:33;;;;;;;;;15.33;14.00;;;;;16.08;42.28;101896.03;4872465;29;47204;-84
2022/04/30 10:11:32;;;;;;;;;13.67;13.67;;;;;16.06;42.00;101913.88;4871762;29;45530;-83
2022/04/30 10:14:09;;;;;;;;;21.33;18.67;;;;;16.08;41.64;101916.56;4866583;29;45538;-82
2022/04/30 10:16:36;;;;;;;;;13.00;13.00;;;;;16.05;41.59;101912.06;4870337;29;44897;-82
2022/04/30 10:19:16;;;;;;;;;12.00;12.00;;;;;16.04;41.84;101894.19;4869717;29;48287;-82
2022/04/30 10:21:42;;;;;;;;;16.00;14.00;;;;;16.09;41.84;101892.44;4854853;29;45758;-82
2022/04/30 10:24:12;;;;;;;;;17.67;16.00;;;;;16.09;41.86;101888.84;4855014;29;45444;-82
2022/04/30 10:26:38;;;;;;;;;15.00;14.00;;;;;16.15;42.56;101892.50;4880468;29;45376;-82
2022/04/30 10:29:14;;;;;;;;;10.33;7.00;;;;;16.33;42.14;101890.88;4891436;29;45434;-83
2022/04/30 10:31:44;;;;;;;;;18.00;14.67;;;;;16.33;41.70;101898.94;4891489;29;45442;-84
2022/04/30 10:34:11;;;;;;;;;8.00;8.00;;;;;16.28;41.51;101890.84;4875231;29;45450;-83
2022/04/30 10:36:38;;;;;;;;;14.00;11.67;;;;;16.31;41.56;101890.84;4891687;29;45681;-82
2022/04/30 10:39:06;;;;;;;;;15.33;14.67;;;;;16.35;41.78;101891.78;4900972;29;45417;-84
2022/04/30 10:41:48;;;;;;;;;15.67;15.00;;;;;16.41;41.50;101907.94;4890518;29;45531;-83
2022/04/30 10:44:14;;;;;;;;;17.00;16.00;;;;;16.15;41.00;101873.72;4909781;29;44780;-83
2022/04/30 10:46:48;;;;;;;;;16.67;15.67;;;;;16.23;41.86;101880.94;4894317;29;45503;-83
2022/04/30 10:49:14;;;;;;;;;17.67;16.33;;;;;16.26;42.32;101881.88;4910292;29;45787;-84
2022/04/30 10:51:41;;;;;;;;;16.67;16.67;;;;;16.38;41.66;101886.44;4894242;29;45845;-83
2022/04/30 10:54:15;;;;;;;;;16.00;16.00;;;;;16.37;41.61;101882.84;4896392;29;45390;-83
2022/04/30 10:56:41;;;;;;;;;19.00;19.00;;;;;16.34;42.16;101876.53;4913531;29;44825;-84
2022/04/30 10:59:07;;;;;;;;;6.33;6.33;;;;;16.44;41.81;101878.47;4892446;29;48214;-83
2022/04/30 11:01:33;;;;;;;;;15.00;14.33;;;;;16.46;41.16;101878.44;4891577;29;45485;-83
2022/04/30 11:04:01;;;;;;;;;20.67;18.67;;;;;16.53;41.46;101873.13;4909630;29;45805;-83
2022/04/30 11:06:30;;;;;;;;;13.00;13.00;;;;;16.66;41.33;101870.53;4912612;29;45475;-83
2022/04/30 11:08:56;;;;;;;;;16.00;15.00;;;;;16.70;41.09;101875.03;4912855;29;45539;-83
2022/04/30 11:11:21;;;;;;;;;17.67;15.67;;;;;16.67;41.01;101872.34;4913473;29;45531;-83
2022/04/30 11:13:55;;;;;;;;;14.67;12.33;;;;;16.74;40.30;101858.97;4915755;28;45683;-83
2022/04/30 11:16:20;;;;;;;;;13.33;13.33;;;;;16.66;39.58;101852.63;4899698;29;45870;-83
2022/04/30 11:18:57;;;;;;;;;15.33;15.33;;;;;16.78;39.60;101863.47;4916727;28;45570;-83
2022/04/30 11:21:32;;;;;;;;;15.00;13.33;;;;;16.75;40.77;101857.19;4898367;29;44902;-83
2022/04/30 11:23:58;;;;;;;;;11.00;10.33;;;;;16.79;40.53;101859.00;4882986;29;45503;-83
2022/04/30 11:26:23;;;;;;;;;12.33;11.67;;;;;16.81;40.62;101854.56;4897056;29;45479;-83
2022/04/30 11:28:49;;;;;;;;;9.67;9.67;;;;;16.91;40.06;101853.72;4913765;29;45352;-83
2022/04/30 11:31:21;;;;;;;;;9.67;7.67;;;;;17.05;40.11;101860.94;4908784;29;44771;-83
2022/04/30 11:33:47;;;;;;;;;14.00;12.33;;;;;17.05;38.64;101843.06;4897536;29;45692;-83
2022/04/30 11:36:12;;;;;;;;;10.33;9.00;;;;;16.97;39.59;101836.75;4898294;29;44921;-82
2022/04/30 11:38:38;;;;;;;;;11.00;9.00;;;;;16.99;39.44;101846.59;4896194;29;47259;-83
2022/04/30 11:41:09;;;;;;;;;7.33;6.67;;;;;17.09;39.41;101846.66;4896031;29;45667;-84
2022/04/30 11:43:36;;;;;;;;;7.67;6.67;;;;;17.06;38.21;101849.31;4894699;29;44861;-84
2022/04/30 11:46:03;;;;;;;;;6.67;6.33;;;;;17.05;37.25;101842.13;4895692;29;45262;-83
2022/04/30 11:48:41;;;;;;;;;9.33;9.00;;;;;17.10;37.73;101821.56;4895160;29;46797;-84
2022/04/30 11:51:07;;;;;;;;;6.67;5.67;;;;;17.13;38.41;101827.88;4893247;29;45525;-83
2022/04/30 11:53:34;;;;;;;;;8.00;7.33;;;;;17.16;38.23;101822.47;4911891;29;45494;-83